Maywood, NE

12:48 PM CDT on July 28, 2014 (GMT -0500)
HAYES CENTER (KNEMCCOO3) Elev 3035 ft | 40.49 °N, 101.04 °W | Change Station

Current weather conditions updated 14 minutes ago

Clear
Clear
79.2 °F
Feels Like 80 °F
N
17.0
Wind Variable Wind from SSE
Gusts 23.0 mph

Today is forecast to be nearly the same temperature as yesterday.

Today
High -- | Low -- °F
--% Chance of Precip.
Yesterday
High -- | Low -- °F
Precip. -- in
6:36 AM 9:01 PM
Waxing Crescent, 3% visible
Pressure 30.28 in
Visibility 10.0 miles
Clouds Clear
Heat Index 80 °F
Dew Point 58 °F
Humidity 48%
Rainfall 0.00 in
Snow Depth Not available.
UV 9 out of 12
Pollen 7.10 out of 12
Air Quality Not available.
Flu Activity Not available.
METAR KMCK 281653Z AUTO 15009KT 10SM CLR 26/14 A3033 RMK AO2 SLP252 T02560144

More Conditions Fewer Conditions

Pressure 30.28 in
Visibility 10.0 miles
Clouds Clear
Heat Index 80 °F
Dew Point 58 °F
Humidity 48%
Rainfall 0.00 in
Snow Depth Not available.
UV 9 out of 12
Pollen 7.10 out of 12
Air Quality Not available.
Flu Activity Not available.
METAR KMCK 281653Z AUTO 15009KT 10SM CLR 26/14 A3033 RMK AO2 SLP252 T02560144

More Conditions Fewer Conditions

10-Day Weather Forecast

Almanac

Astronomy

Jul. 28, 2014 Rise Set
Actual Time 6:36 AM CDT 9:01 PM CDT
Civil Twilight 6:05 AM CDT 9:32 PM CDT
Nautical Twilight 5:26 AM CDT 10:10 PM CDT
Astronomical Twilight 4:43 AM CDT 10:53 PM CDT
Moon 8:19 AM CDT 9:43 PM CDT
Length of Visible Light 15h 27m
Length of Day
14h 25m
Tomorrow will be 1m 54s shorter.
Waxing Crescent, 3% of the Moon is Illuminated
Today
Waxing Crescent
Aug 3
First Quarter
Aug 10
Full
Aug 17
Last Quarter
Aug 25
New

Today's Extremes

State Highs State Lows

Community

WunderPhotos

Upload Photos

1,738,425 photos uploaded!

Nearby

Snow Depth

Station Depth Elevation
No new snow has been reported.

Earthquake Activity

City Distance Mag. Time & Date
No recent earthquake activity has been reported nearby.
Minimum magnitude displayed is 2.5.

Coastal Water Temperatures

Place Temperature
No Stations Reporting

Nearby Weather Stations

Station Location Temp. Heat Index Dew Point Humidity Wind Precip. Elev Updated Type
HAYES CENTER, HAYES CENTER, NE 79.2 °F 80 °F 58 °F 48% SSE  at  17.0 mph 0.00 in / hr 3035 ft 12:34 PM CDT Normal
HADS RED WILLOW CREEK NEAR INDIANOLA NE, Indianola, NE 79 °F 77 °F - - North  at  - 0.00 in / hr 2398 ft 11:30 AM CDT MADIS
McCook, NE 77.4 °F 79 °F 63 °F 61% SSE  at  4.0 mph 0.00 in / hr 2609 ft 12:41 PM CDT Normal

Show More Stations Show Fewer Stations